sensor_id;sensor_type;location;lat;lon;timestamp;P1;durP1;ratioP1;P2;durP2;ratioP2
21235;SDS011;10775;42.678;26.324;2023-05-10T00:02:22;3.05;;;2.13;;
21235;SDS011;10775;42.678;26.324;2023-05-10T00:04:48;2.53;;;1.73;;
21235;SDS011;10775;42.678;26.324;2023-05-10T00:07:13;2.00;;;1.70;;
21235;SDS011;10775;42.678;26.324;2023-05-10T00:09:39;2.53;;;1.92;;
21235;SDS011;10775;42.678;26.324;2023-05-10T00:12:05;3.00;;;2.10;;
21235;SDS011;10775;42.678;26.324;2023-05-10T00:14:30;3.40;;;2.00;;
21235;SDS011;10775;42.678;26.324;2023-05-10T00:16:56;3.10;;;2.10;;
21235;SDS011;10775;42.678;26.324;2023-05-10T00:19:21;2.50;;;1.92;;
21235;SDS011;10775;42.678;26.324;2023-05-10T00:21:47;2.40;;;1.92;;
21235;SDS011;10775;42.678;26.324;2023-05-10T00:24:12;3.15;;;2.35;;
21235;SDS011;10775;42.678;26.324;2023-05-10T00:26:38;2.83;;;2.03;;
21235;SDS011;10775;42.678;26.324;2023-05-10T00:29:03;3.08;;;2.03;;
21235;SDS011;10775;42.678;26.324;2023-05-10T00:31:29;3.45;;;1.85;;
21235;SDS011;10775;42.678;26.324;2023-05-10T00:33:54;3.33;;;2.03;;
21235;SDS011;10775;42.678;26.324;2023-05-10T00:36:20;2.70;;;1.88;;
21235;SDS011;10775;42.678;26.324;2023-05-10T00:38:46;2.60;;;2.05;;
21235;SDS011;10775;42.678;26.324;2023-05-10T00:41:11;2.47;;;2.05;;
21235;SDS011;10775;42.678;26.324;2023-05-10T00:43:37;2.40;;;1.92;;
21235;SDS011;10775;42.678;26.324;2023-05-10T00:46:02;2.50;;;1.95;;
21235;SDS011;10775;42.678;26.324;2023-05-10T00:48:29;4.90;;;2.08;;
21235;SDS011;10775;42.678;26.324;2023-05-10T00:50:54;2.67;;;2.03;;
21235;SDS011;10775;42.678;26.324;2023-05-10T00:53:20;2.70;;;2.10;;
21235;SDS011;10775;42.678;26.324;2023-05-10T00:55:46;2.33;;;1.88;;
21235;SDS011;10775;42.678;26.324;2023-05-10T00:58:12;2.67;;;2.42;;
21235;SDS011;10775;42.678;26.324;2023-05-10T01:00:37;2.58;;;2.17;;
21235;SDS011;10775;42.678;26.324;2023-05-10T01:03:06;2.58;;;1.75;;
21235;SDS011;10775;42.678;26.324;2023-05-10T01:05:32;3.78;;;2.10;;
21235;SDS011;10775;42.678;26.324;2023-05-10T01:07:57;3.13;;;2.00;;
21235;SDS011;10775;42.678;26.324;2023-05-10T01:10:23;2.53;;;1.75;;
21235;SDS011;10775;42.678;26.324;2023-05-10T01:12:49;2.28;;;1.80;;
21235;SDS011;10775;42.678;26.324;2023-05-10T01:15:14;3.40;;;2.08;;
21235;SDS011;10775;42.678;26.324;2023-05-10T01:17:42;2.55;;;1.75;;
21235;SDS011;10775;42.678;26.324;2023-05-10T01:20:09;3.40;;;2.03;;
21235;SDS011;10775;42.678;26.324;2023-05-10T01:28:39;2.03;;;1.77;;
21235;SDS011;10775;42.678;26.324;2023-05-10T01:34:17;4.07;;;1.98;;
21235;SDS011;10775;42.678;26.324;2023-05-10T01:37:04;2.47;;;1.85;;
21235;SDS011;10775;42.678;26.324;2023-05-10T01:42:17;3.03;;;2.20;;
21235;SDS011;10775;42.678;26.324;2023-05-10T01:44:49;3.08;;;1.60;;
21235;SDS011;10775;42.678;26.324;2023-05-10T01:47:37;3.35;;;1.90;;
21235;SDS011;10775;42.678;26.324;2023-05-10T01:50:06;2.92;;;1.90;;
21235;SDS011;10775;42.678;26.324;2023-05-10T01:52:41;2.70;;;2.05;;
21235;SDS011;10775;42.678;26.324;2023-05-10T01:55:09;3.25;;;2.00;;
21235;SDS011;10775;42.678;26.324;2023-05-10T01:57:39;1.80;;;1.50;;
21235;SDS011;10775;42.678;26.324;2023-05-10T02:00:08;2.58;;;1.58;;
21235;SDS011;10775;42.678;26.324;2023-05-10T02:02:39;3.10;;;2.00;;
21235;SDS011;10775;42.678;26.324;2023-05-10T02:05:07;2.90;;;1.95;;
21235;SDS011;10775;42.678;26.324;2023-05-10T02:07:35;2.42;;;1.75;;
21235;SDS011;10775;42.678;26.324;2023-05-10T02:10:02;2.13;;;1.83;;
21235;SDS011;10775;42.678;26.324;2023-05-10T02:12:30;2.28;;;1.80;;
21235;SDS011;10775;42.678;26.324;2023-05-10T02:15:02;2.60;;;1.90;;
21235;SDS011;10775;42.678;26.324;2023-05-10T02:17:31;2.88;;;1.80;;
21235;SDS011;10775;42.678;26.324;2023-05-10T02:19:58;2.63;;;1.80;;
21235;SDS011;10775;42.678;26.324;2023-05-10T02:22:25;3.97;;;1.80;;
21235;SDS011;10775;42.678;26.324;2023-05-10T02:24:52;3.53;;;2.08;;
21235;SDS011;10775;42.678;26.324;2023-05-10T02:27:20;2.17;;;1.90;;
21235;SDS011;10775;42.678;26.324;2023-05-10T02:29:48;4.05;;;1.80;;
21235;SDS011;10775;42.678;26.324;2023-05-10T02:32:15;2.92;;;2.10;;
21235;SDS011;10775;42.678;26.324;2023-05-10T02:34:42;3.35;;;2.30;;
21235;SDS011;10775;42.678;26.324;2023-05-10T02:37:10;2.33;;;1.70;;
21235;SDS011;10775;42.678;26.324;2023-05-10T02:39:39;3.42;;;2.00;;
21235;SDS011;10775;42.678;26.324;2023-05-10T02:42:10;2.73;;;2.10;;
21235;SDS011;10775;42.678;26.324;2023-05-10T02:44:41;3.35;;;2.20;;
21235;SDS011;10775;42.678;26.324;2023-05-10T02:47:08;2.85;;;2.35;;
21235;SDS011;10775;42.678;26.324;2023-05-10T02:49:33;3.72;;;2.40;;
21235;SDS011;10775;42.678;26.324;2023-05-10T02:52:00;2.95;;;2.08;;
21235;SDS011;10775;42.678;26.324;2023-05-10T02:54:31;4.43;;;2.55;;
21235;SDS011;10775;42.678;26.324;2023-05-10T02:57:03;2.20;;;1.67;;
21235;SDS011;10775;42.678;26.324;2023-05-10T02:59:30;2.38;;;1.85;;
21235;SDS011;10775;42.678;26.324;2023-05-10T03:01:57;2.75;;;2.30;;
21235;SDS011;10775;42.678;26.324;2023-05-10T03:04:24;2.50;;;2.03;;
21235;SDS011;10775;42.678;26.324;2023-05-10T03:06:50;2.05;;;1.73;;
21235;SDS011;10775;42.678;26.324;2023-05-10T03:09:15;2.97;;;1.85;;
21235;SDS011;10775;42.678;26.324;2023-05-10T03:17:06;3.65;;;2.17;;
21235;SDS011;10775;42.678;26.324;2023-05-10T03:19:48;4.13;;;2.45;;
21235;SDS011;10775;42.678;26.324;2023-05-10T03:22:23;3.80;;;2.70;;
21235;SDS011;10775;42.678;26.324;2023-05-10T03:24:55;3.25;;;2.33;;
21235;SDS011;10775;42.678;26.324;2023-05-10T03:27:23;3.35;;;2.17;;
21235;SDS011;10775;42.678;26.324;2023-05-10T03:29:51;4.35;;;2.03;;
21235;SDS011;10775;42.678;26.324;2023-05-10T03:32:18;3.30;;;1.98;;
21235;SDS011;10775;42.678;26.324;2023-05-10T03:34:44;3.08;;;2.20;;
21235;SDS011;10775;42.678;26.324;2023-05-10T03:37:09;3.45;;;2.20;;
21235;SDS011;10775;42.678;26.324;2023-05-10T03:39:35;2.70;;;2.05;;
21235;SDS011;10775;42.678;26.324;2023-05-10T03:42:00;2.92;;;1.90;;
21235;SDS011;10775;42.678;26.324;2023-05-10T03:44:26;3.00;;;2.13;;
21235;SDS011;10775;42.678;26.324;2023-05-10T03:46:51;3.15;;;2.20;;
21235;SDS011;10775;42.678;26.324;2023-05-10T03:49:17;4.05;;;1.95;;
21235;SDS011;10775;42.678;26.324;2023-05-10T03:51:42;2.78;;;2.30;;
21235;SDS011;10775;42.678;26.324;2023-05-10T03:54:08;3.17;;;1.80;;
21235;SDS011;10775;42.678;26.324;2023-05-10T03:56:33;3.45;;;2.00;;
21235;SDS011;10775;42.678;26.324;2023-05-10T03:58:58;3.67;;;2.00;;
21235;SDS011;10775;42.678;26.324;2023-05-10T04:01:24;3.25;;;2.70;;
21235;SDS011;10775;42.678;26.324;2023-05-10T04:03:49;2.63;;;1.90;;
21235;SDS011;10775;42.678;26.324;2023-05-10T04:06:15;3.08;;;2.20;;
21235;SDS011;10775;42.678;26.324;2023-05-10T04:08:40;2.15;;;1.63;;
21235;SDS011;10775;42.678;26.324;2023-05-10T04:11:09;4.05;;;1.98;;
21235;SDS011;10775;42.678;26.324;2023-05-10T04:13:36;3.85;;;2.15;;
21235;SDS011;10775;42.678;26.324;2023-05-10T04:16:03;2.97;;;1.73;;
21235;SDS011;10775;42.678;26.324;2023-05-10T04:18:29;3.03;;;1.67;;
21235;SDS011;10775;42.678;26.324;2023-05-10T04:20:54;3.60;;;2.00;;
21235;SDS011;10775;42.678;26.324;2023-05-10T04:23:20;2.88;;;2.15;;
21235;SDS011;10775;42.678;26.324;2023-05-10T04:25:45;2.72;;;1.70;;
21235;SDS011;10775;42.678;26.324;2023-05-10T04:28:11;2.75;;;1.90;;
21235;SDS011;10775;42.678;26.324;2023-05-10T04:30:36;2.58;;;1.88;;
21235;SDS011;10775;42.678;26.324;2023-05-10T04:33:02;2.97;;;2.22;;
21235;SDS011;10775;42.678;26.324;2023-05-10T04:35:28;2.70;;;2.17;;
21235;SDS011;10775;42.678;26.324;2023-05-10T04:37:54;2.75;;;2.00;;
21235;SDS011;10775;42.678;26.324;2023-05-10T04:40:19;2.10;;;1.77;;
21235;SDS011;10775;42.678;26.324;2023-05-10T04:42:45;2.67;;;2.08;;
21235;SDS011;10775;42.678;26.324;2023-05-10T04:45:11;3.42;;;2.20;;
21235;SDS011;10775;42.678;26.324;2023-05-10T04:47:37;3.50;;;2.22;;
21235;SDS011;10775;42.678;26.324;2023-05-10T04:50:03;3.53;;;2.28;;
21235;SDS011;10775;42.678;26.324;2023-05-10T04:52:29;3.45;;;2.30;;
21235;SDS011;10775;42.678;26.324;2023-05-10T04:54:54;2.47;;;1.73;;
21235;SDS011;10775;42.678;26.324;2023-05-10T04:57:20;2.80;;;2.22;;
21235;SDS011;10775;42.678;26.324;2023-05-10T04:59:45;3.45;;;2.40;;
21235;SDS011;10775;42.678;26.324;2023-05-10T05:02:10;5.82;;;2.92;;
21235;SDS011;10775;42.678;26.324;2023-05-10T05:04:36;4.93;;;3.17;;
21235;SDS011;10775;42.678;26.324;2023-05-10T05:07:01;3.50;;;2.42;;
21235;SDS011;10775;42.678;26.324;2023-05-10T05:09:27;3.45;;;2.17;;
21235;SDS011;10775;42.678;26.324;2023-05-10T05:11:52;3.28;;;2.33;;
21235;SDS011;10775;42.678;26.324;2023-05-10T05:14:18;3.92;;;2.00;;
21235;SDS011;10775;42.678;26.324;2023-05-10T05:16:45;2.70;;;2.13;;
21235;SDS011;10775;42.678;26.324;2023-05-10T05:19:11;4.03;;;2.40;;
21235;SDS011;10775;42.678;26.324;2023-05-10T05:21:36;5.40;;;2.47;;
21235;SDS011;10775;42.678;26.324;2023-05-10T05:24:02;4.30;;;2.45;;
21235;SDS011;10775;42.678;26.324;2023-05-10T05:26:28;3.72;;;2.55;;
21235;SDS011;10775;42.678;26.324;2023-05-10T05:28:53;6.38;;;3.97;;
21235;SDS011;10775;42.678;26.324;2023-05-10T05:31:19;5.82;;;2.55;;
21235;SDS011;10775;42.678;26.324;2023-05-10T05:33:45;3.95;;;2.65;;
21235;SDS011;10775;42.678;26.324;2023-05-10T05:36:11;5.15;;;3.72;;
21235;SDS011;10775;42.678;26.324;2023-05-10T05:38:36;10.23;;;4.28;;
21235;SDS011;10775;42.678;26.324;2023-05-10T05:41:02;7.40;;;2.67;;
21235;SDS011;10775;42.678;26.324;2023-05-10T05:43:28;4.85;;;2.67;;
21235;SDS011;10775;42.678;26.324;2023-05-10T05:45:53;3.70;;;2.33;;
21235;SDS011;10775;42.678;26.324;2023-05-10T05:48:19;5.97;;;2.92;;
21235;SDS011;10775;42.678;26.324;2023-05-10T05:50:45;4.60;;;2.30;;
21235;SDS011;10775;42.678;26.324;2023-05-10T05:53:10;3.75;;;2.45;;
21235;SDS011;10775;42.678;26.324;2023-05-10T05:55:36;11.38;;;6.32;;
21235;SDS011;10775;42.678;26.324;2023-05-10T05:58:01;5.10;;;2.30;;
21235;SDS011;10775;42.678;26.324;2023-05-10T06:00:27;3.30;;;2.25;;
21235;SDS011;10775;42.678;26.324;2023-05-10T06:02:53;3.28;;;2.33;;
21235;SDS011;10775;42.678;26.324;2023-05-10T06:05:18;3.25;;;2.22;;
21235;SDS011;10775;42.678;26.324;2023-05-10T06:07:45;3.33;;;1.75;;
21235;SDS011;10775;42.678;26.324;2023-05-10T06:10:11;5.07;;;2.60;;
21235;SDS011;10775;42.678;26.324;2023-05-10T06:12:36;3.40;;;2.17;;
21235;SDS011;10775;42.678;26.324;2023-05-10T06:15:02;3.22;;;2.10;;
21235;SDS011;10775;42.678;26.324;2023-05-10T06:17:28;4.95;;;2.47;;
21235;SDS011;10775;42.678;26.324;2023-05-10T06:19:54;4.97;;;2.08;;
21235;SDS011;10775;42.678;26.324;2023-05-10T06:22:20;3.15;;;2.50;;
21235;SDS011;10775;42.678;26.324;2023-05-10T06:24:47;3.38;;;2.47;;
21235;SDS011;10775;42.678;26.324;2023-05-10T06:27:13;6.13;;;2.47;;
21235;SDS011;10775;42.678;26.324;2023-05-10T06:29:39;3.15;;;1.80;;
21235;SDS011;10775;42.678;26.324;2023-05-10T06:32:04;3.45;;;2.40;;
21235;SDS011;10775;42.678;26.324;2023-05-10T06:34:30;7.88;;;2.22;;
21235;SDS011;10775;42.678;26.324;2023-05-10T06:36:55;2.85;;;2.30;;
21235;SDS011;10775;42.678;26.324;2023-05-10T06:39:21;3.60;;;2.53;;
21235;SDS011;10775;42.678;26.324;2023-05-10T06:41:46;5.88;;;1.85;;
21235;SDS011;10775;42.678;26.324;2023-05-10T06:44:11;6.82;;;1.92;;
21235;SDS011;10775;42.678;26.324;2023-05-10T06:46:38;4.78;;;2.20;;
21235;SDS011;10775;42.678;26.324;2023-05-10T06:49:03;4.78;;;1.98;;
21235;SDS011;10775;42.678;26.324;2023-05-10T06:51:29;4.72;;;1.95;;
21235;SDS011;10775;42.678;26.324;2023-05-10T06:53:55;3.92;;;2.30;;
21235;SDS011;10775;42.678;26.324;2023-05-10T06:56:20;3.50;;;2.00;;
21235;SDS011;10775;42.678;26.324;2023-05-10T06:58:47;3.65;;;2.03;;
21235;SDS011;10775;42.678;26.324;2023-05-10T07:01:12;3.10;;;2.15;;
21235;SDS011;10775;42.678;26.324;2023-05-10T07:03:38;3.22;;;1.75;;
21235;SDS011;10775;42.678;26.324;2023-05-10T07:06:03;6.60;;;2.45;;
21235;SDS011;10775;42.678;26.324;2023-05-10T07:08:30;4.32;;;1.90;;
21235;SDS011;10775;42.678;26.324;2023-05-10T07:11:03;3.05;;;1.95;;
21235;SDS011;10775;42.678;26.324;2023-05-10T07:13:30;4.43;;;2.10;;
21235;SDS011;10775;42.678;26.324;2023-05-10T07:15:56;5.45;;;2.00;;
21235;SDS011;10775;42.678;26.324;2023-05-10T07:18:23;3.10;;;2.13;;
21235;SDS011;10775;42.678;26.324;2023-05-10T07:20:49;3.25;;;1.77;;
21235;SDS011;10775;42.678;26.324;2023-05-10T07:23:14;4.55;;;2.05;;
21235;SDS011;10775;42.678;26.324;2023-05-10T07:25:40;3.00;;;2.00;;
21235;SDS011;10775;42.678;26.324;2023-05-10T07:28:05;7.32;;;2.08;;
21235;SDS011;10775;42.678;26.324;2023-05-10T07:30:30;4.38;;;1.95;;
21235;SDS011;10775;42.678;26.324;2023-05-10T07:32:56;4.75;;;2.45;;
21235;SDS011;10775;42.678;26.324;2023-05-10T07:35:21;3.70;;;2.47;;
21235;SDS011;10775;42.678;26.324;2023-05-10T07:37:47;2.58;;;1.80;;
21235;SDS011;10775;42.678;26.324;2023-05-10T07:40:12;3.72;;;2.20;;
21235;SDS011;10775;42.678;26.324;2023-05-10T07:42:38;5.32;;;2.50;;
21235;SDS011;10775;42.678;26.324;2023-05-10T07:45:04;2.55;;;1.80;;
21235;SDS011;10775;42.678;26.324;2023-05-10T07:47:29;4.97;;;2.20;;
21235;SDS011;10775;42.678;26.324;2023-05-10T07:49:55;3.25;;;2.22;;
21235;SDS011;10775;42.678;26.324;2023-05-10T07:52:20;2.25;;;1.83;;
21235;SDS011;10775;42.678;26.324;2023-05-10T07:54:46;5.20;;;2.20;;
21235;SDS011;10775;42.678;26.324;2023-05-10T07:57:11;5.00;;;2.20;;
21235;SDS011;10775;42.678;26.324;2023-05-10T07:59:39;3.90;;;2.03;;
21235;SDS011;10775;42.678;26.324;2023-05-10T08:02:05;6.60;;;2.88;;
21235;SDS011;10775;42.678;26.324;2023-05-10T08:04:31;4.35;;;2.00;;
21235;SDS011;10775;42.678;26.324;2023-05-10T08:06:56;3.75;;;2.28;;
21235;SDS011;10775;42.678;26.324;2023-05-10T08:09:22;4.30;;;2.10;;
21235;SDS011;10775;42.678;26.324;2023-05-10T08:11:49;3.28;;;2.10;;
21235;SDS011;10775;42.678;26.324;2023-05-10T08:14:15;6.25;;;2.30;;
21235;SDS011;10775;42.678;26.324;2023-05-10T08:16:41;3.40;;;2.28;;
21235;SDS011;10775;42.678;26.324;2023-05-10T08:19:06;4.22;;;2.40;;
21235;SDS011;10775;42.678;26.324;2023-05-10T08:21:32;5.68;;;2.90;;
21235;SDS011;10775;42.678;26.324;2023-05-10T08:23:57;5.50;;;2.90;;
21235;SDS011;10775;42.678;26.324;2023-05-10T08:26:23;7.38;;;3.05;;
21235;SDS011;10775;42.678;26.324;2023-05-10T08:28:48;5.15;;;2.58;;
21235;SDS011;10775;42.678;26.324;2023-05-10T08:31:14;4.82;;;2.80;;
21235;SDS011;10775;42.678;26.324;2023-05-10T08:33:40;3.95;;;2.60;;
21235;SDS011;10775;42.678;26.324;2023-05-10T08:36:05;7.05;;;3.35;;
21235;SDS011;10775;42.678;26.324;2023-05-10T08:38:31;5.32;;;2.67;;
21235;SDS011;10775;42.678;26.324;2023-05-10T08:40:56;6.72;;;2.78;;
21235;SDS011;10775;42.678;26.324;2023-05-10T08:43:26;5.93;;;3.10;;
21235;SDS011;10775;42.678;26.324;2023-05-10T08:45:54;6.85;;;2.65;;
21235;SDS011;10775;42.678;26.324;2023-05-10T08:48:21;9.68;;;6.75;;
21235;SDS011;10775;42.678;26.324;2023-05-10T08:50:49;6.47;;;3.17;;
21235;SDS011;10775;42.678;26.324;2023-05-10T08:53:19;5.38;;;2.70;;
21235;SDS011;10775;42.678;26.324;2023-05-10T08:55:48;10.43;;;3.30;;
21235;SDS011;10775;42.678;26.324;2023-05-10T08:58:13;7.00;;;2.70;;
21235;SDS011;10775;42.678;26.324;2023-05-10T09:00:39;6.38;;;2.60;;
21235;SDS011;10775;42.678;26.324;2023-05-10T09:03:05;6.82;;;3.08;;
21235;SDS011;10775;42.678;26.324;2023-05-10T09:05:31;7.50;;;2.67;;
21235;SDS011;10775;42.678;26.324;2023-05-10T09:07:57;8.15;;;5.47;;
21235;SDS011;10775;42.678;26.324;2023-05-10T09:10:23;5.07;;;2.80;;
21235;SDS011;10775;42.678;26.324;2023-05-10T09:12:52;4.32;;;2.33;;
21235;SDS011;10775;42.678;26.324;2023-05-10T09:15:21;9.68;;;5.25;;
21235;SDS011;10775;42.678;26.324;2023-05-10T09:17:46;4.40;;;2.45;;
21235;SDS011;10775;42.678;26.324;2023-05-10T09:20:12;6.03;;;2.92;;
21235;SDS011;10775;42.678;26.324;2023-05-10T09:22:37;4.22;;;2.75;;
21235;SDS011;10775;42.678;26.324;2023-05-10T09:25:13;4.90;;;3.03;;
21235;SDS011;10775;42.678;26.324;2023-05-10T09:27:41;4.72;;;2.40;;
21235;SDS011;10775;42.678;26.324;2023-05-10T09:30:10;3.65;;;2.25;;
21235;SDS011;10775;42.678;26.324;2023-05-10T09:32:41;5.35;;;2.90;;
21235;SDS011;10775;42.678;26.324;2023-05-10T09:35:08;5.22;;;2.28;;
21235;SDS011;10775;42.678;26.324;2023-05-10T09:37:35;3.55;;;2.20;;
21235;SDS011;10775;42.678;26.324;2023-05-10T09:40:01;3.65;;;2.50;;
21235;SDS011;10775;42.678;26.324;2023-05-10T09:42:29;4.00;;;2.58;;
21235;SDS011;10775;42.678;26.324;2023-05-10T09:44:59;4.68;;;2.42;;
21235;SDS011;10775;42.678;26.324;2023-05-10T09:47:31;4.13;;;2.53;;
21235;SDS011;10775;42.678;26.324;2023-05-10T09:49:57;5.47;;;2.35;;
21235;SDS011;10775;42.678;26.324;2023-05-10T09:52:27;2.72;;;2.15;;
21235;SDS011;10775;42.678;26.324;2023-05-10T09:54:53;3.80;;;2.13;;
21235;SDS011;10775;42.678;26.324;2023-05-10T09:57:23;4.45;;;2.08;;
21235;SDS011;10775;42.678;26.324;2023-05-10T09:59:50;2.53;;;2.00;;
21235;SDS011;10775;42.678;26.324;2023-05-10T10:02:15;3.00;;;2.13;;
21235;SDS011;10775;42.678;26.324;2023-05-10T10:04:42;3.17;;;1.90;;
21235;SDS011;10775;42.678;26.324;2023-05-10T10:07:07;8.60;;;2.80;;
21235;SDS011;10775;42.678;26.324;2023-05-10T10:09:34;9.02;;;4.68;;
21235;SDS011;10775;42.678;26.324;2023-05-10T10:12:00;9.82;;;4.72;;
21235;SDS011;10775;42.678;26.324;2023-05-10T10:14:26;15.27;;;5.90;;
21235;SDS011;10775;42.678;26.324;2023-05-10T10:16:53;11.93;;;6.03;;
21235;SDS011;10775;42.678;26.324;2023-05-10T10:19:19;13.20;;;7.18;;
21235;SDS011;10775;42.678;26.324;2023-05-10T10:21:48;13.63;;;7.53;;
21235;SDS011;10775;42.678;26.324;2023-05-10T10:24:14;11.40;;;6.85;;
21235;SDS011;10775;42.678;26.324;2023-05-10T10:26:40;12.07;;;6.88;;
21235;SDS011;10775;42.678;26.324;2023-05-10T10:31:47;12.43;;;7.30;;
21235;SDS011;10775;42.678;26.324;2023-05-10T10:34:27;22.48;;;11.65;;
21235;SDS011;10775;42.678;26.324;2023-05-10T10:36:54;10.68;;;5.90;;
21235;SDS011;10775;42.678;26.324;2023-05-10T13:52:06;6.47;;;3.67;;
21235;SDS011;10775;42.678;26.324;2023-05-10T13:54:34;8.27;;;3.85;;
21235;SDS011;10775;42.678;26.324;2023-05-10T13:57:02;8.15;;;3.22;;
21235;SDS011;10775;42.678;26.324;2023-05-10T13:59:28;7.03;;;3.13;;
21235;SDS011;10775;42.678;26.324;2023-05-10T14:01:54;4.70;;;3.22;;
21235;SDS011;10775;42.678;26.324;2023-05-10T14:04:19;6.28;;;2.47;;
21235;SDS011;10775;42.678;26.324;2023-05-10T14:06:45;6.85;;;3.30;;
21235;SDS011;10775;42.678;26.324;2023-05-10T14:09:11;3.22;;;2.22;;
21235;SDS011;10775;42.678;26.324;2023-05-10T14:11:36;5.15;;;2.67;;
21235;SDS011;10775;42.678;26.324;2023-05-10T14:14:01;4.05;;;3.10;;
21235;SDS011;10775;42.678;26.324;2023-05-10T14:16:27;5.93;;;3.10;;
21235;SDS011;10775;42.678;26.324;2023-05-10T14:18:53;7.60;;;3.58;;
21235;SDS011;10775;42.678;26.324;2023-05-10T14:21:18;7.82;;;3.10;;
21235;SDS011;10775;42.678;26.324;2023-05-10T14:23:44;6.63;;;3.72;;
21235;SDS011;10775;42.678;26.324;2023-05-10T14:26:09;4.68;;;2.90;;
21235;SDS011;10775;42.678;26.324;2023-05-10T14:28:35;13.05;;;8.23;;
21235;SDS011;10775;42.678;26.324;2023-05-10T14:31:00;6.05;;;4.03;;
21235;SDS011;10775;42.678;26.324;2023-05-10T14:33:25;5.03;;;3.70;;
21235;SDS011;10775;42.678;26.324;2023-05-10T14:35:51;5.22;;;3.47;;
21235;SDS011;10775;42.678;26.324;2023-05-10T14:38:17;5.03;;;3.17;;
21235;SDS011;10775;42.678;26.324;2023-05-10T14:40:42;4.07;;;3.60;;
21235;SDS011;10775;42.678;26.324;2023-05-10T14:43:08;2.83;;;2.25;;
21235;SDS011;10775;42.678;26.324;2023-05-10T14:45:34;4.05;;;2.88;;
21235;SDS011;10775;42.678;26.324;2023-05-10T14:48:00;4.70;;;2.97;;
21235;SDS011;10775;42.678;26.324;2023-05-10T14:50:26;4.82;;;3.22;;
21235;SDS011;10775;42.678;26.324;2023-05-10T14:56:00;3.90;;;2.80;;
21235;SDS011;10775;42.678;26.324;2023-05-10T14:58:26;6.63;;;3.10;;
21235;SDS011;10775;42.678;26.324;2023-05-10T15:00:52;3.72;;;2.78;;
21235;SDS011;10775;42.678;26.324;2023-05-10T15:03:17;4.10;;;2.78;;
21235;SDS011;10775;42.678;26.324;2023-05-10T15:05:43;4.60;;;3.25;;
21235;SDS011;10775;42.678;26.324;2023-05-10T15:08:08;6.88;;;3.97;;
21235;SDS011;10775;42.678;26.324;2023-05-10T15:10:34;5.72;;;3.20;;
21235;SDS011;10775;42.678;26.324;2023-05-10T15:13:00;3.40;;;3.05;;
21235;SDS011;10775;42.678;26.324;2023-05-10T15:15:26;6.97;;;5.00;;
21235;SDS011;10775;42.678;26.324;2023-05-10T15:17:51;4.40;;;2.90;;
21235;SDS011;10775;42.678;26.324;2023-05-10T15:20:16;5.68;;;2.90;;
21235;SDS011;10775;42.678;26.324;2023-05-10T15:22:42;3.35;;;2.53;;
21235;SDS011;10775;42.678;26.324;2023-05-10T15:25:07;5.03;;;3.13;;
21235;SDS011;10775;42.678;26.324;2023-05-10T15:27:34;5.78;;;3.22;;
21235;SDS011;10775;42.678;26.324;2023-05-10T15:30:00;4.15;;;3.10;;
21235;SDS011;10775;42.678;26.324;2023-05-10T15:32:26;4.82;;;3.10;;
21235;SDS011;10775;42.678;26.324;2023-05-10T15:34:51;3.53;;;2.72;;
21235;SDS011;10775;42.678;26.324;2023-05-10T15:37:17;4.68;;;3.00;;
21235;SDS011;10775;42.678;26.324;2023-05-10T15:39:43;3.92;;;2.40;;
21235;SDS011;10775;42.678;26.324;2023-05-10T15:42:09;4.18;;;2.88;;
21235;SDS011;10775;42.678;26.324;2023-05-10T15:44:34;5.03;;;2.80;;
21235;SDS011;10775;42.678;26.324;2023-05-10T15:47:01;4.40;;;2.40;;
21235;SDS011;10775;42.678;26.324;2023-05-10T15:49:27;7.47;;;4.95;;
21235;SDS011;10775;42.678;26.324;2023-05-10T15:51:53;4.25;;;2.55;;
21235;SDS011;10775;42.678;26.324;2023-05-10T15:54:19;3.08;;;2.72;;
21235;SDS011;10775;42.678;26.324;2023-05-10T15:56:45;3.58;;;2.58;;
21235;SDS011;10775;42.678;26.324;2023-05-10T15:59:10;3.55;;;3.03;;
21235;SDS011;10775;42.678;26.324;2023-05-10T16:01:36;5.20;;;3.60;;
21235;SDS011;10775;42.678;26.324;2023-05-10T16:04:01;4.40;;;3.17;;
21235;SDS011;10775;42.678;26.324;2023-05-10T16:06:27;4.07;;;3.00;;
21235;SDS011;10775;42.678;26.324;2023-05-10T16:08:52;6.47;;;4.10;;
21235;SDS011;10775;42.678;26.324;2023-05-10T16:11:18;4.90;;;3.53;;
21235;SDS011;10775;42.678;26.324;2023-05-10T16:13:43;6.75;;;3.83;;
21235;SDS011;10775;42.678;26.324;2023-05-10T16:16:09;3.60;;;2.78;;
21235;SDS011;10775;42.678;26.324;2023-05-10T16:18:35;5.90;;;3.33;;
21235;SDS011;10775;42.678;26.324;2023-05-10T16:21:00;4.20;;;2.88;;
21235;SDS011;10775;42.678;26.324;2023-05-10T16:23:26;4.30;;;3.38;;
21235;SDS011;10775;42.678;26.324;2023-05-10T16:25:52;5.70;;;3.83;;
21235;SDS011;10775;42.678;26.324;2023-05-10T16:28:18;2.58;;;2.08;;
21235;SDS011;10775;42.678;26.324;2023-05-10T16:30:45;3.47;;;3.10;;
21235;SDS011;10775;42.678;26.324;2023-05-10T16:33:11;4.20;;;3.35;;
21235;SDS011;10775;42.678;26.324;2023-05-10T16:35:37;4.45;;;2.95;;
21235;SDS011;10775;42.678;26.324;2023-05-10T16:38:03;6.00;;;3.65;;
21235;SDS011;10775;42.678;26.324;2023-05-10T16:40:29;12.15;;;6.25;;
21235;SDS011;10775;42.678;26.324;2023-05-10T16:42:55;5.55;;;3.80;;
21235;SDS011;10775;42.678;26.324;2023-05-10T16:45:21;9.25;;;3.78;;
21235;SDS011;10775;42.678;26.324;2023-05-10T16:47:46;6.88;;;3.50;;
21235;SDS011;10775;42.678;26.324;2023-05-10T16:50:12;4.38;;;3.40;;
21235;SDS011;10775;42.678;26.324;2023-05-10T16:52:38;9.45;;;3.85;;
21235;SDS011;10775;42.678;26.324;2023-05-10T16:55:04;5.22;;;3.05;;
21235;SDS011;10775;42.678;26.324;2023-05-10T16:57:30;3.40;;;2.75;;
21235;SDS011;10775;42.678;26.324;2023-05-10T16:59:56;6.85;;;3.90;;
21235;SDS011;10775;42.678;26.324;2023-05-10T17:02:22;4.05;;;2.75;;
21235;SDS011;10775;42.678;26.324;2023-05-10T17:04:48;4.30;;;3.08;;
21235;SDS011;10775;42.678;26.324;2023-05-10T17:07:14;4.35;;;3.03;;
21235;SDS011;10775;42.678;26.324;2023-05-10T17:09:40;4.00;;;2.58;;
21235;SDS011;10775;42.678;26.324;2023-05-10T17:12:06;4.07;;;2.60;;
21235;SDS011;10775;42.678;26.324;2023-05-10T17:14:32;9.20;;;5.13;;
21235;SDS011;10775;42.678;26.324;2023-05-10T17:16:58;8.45;;;5.43;;
21235;SDS011;10775;42.678;26.324;2023-05-10T17:19:23;4.88;;;3.03;;
21235;SDS011;10775;42.678;26.324;2023-05-10T17:21:49;4.63;;;2.75;;
21235;SDS011;10775;42.678;26.324;2023-05-10T17:24:14;5.25;;;2.80;;
21235;SDS011;10775;42.678;26.324;2023-05-10T17:26:40;4.90;;;2.67;;
21235;SDS011;10775;42.678;26.324;2023-05-10T17:29:05;7.88;;;3.40;;
21235;SDS011;10775;42.678;26.324;2023-05-10T17:31:31;8.25;;;2.80;;
21235;SDS011;10775;42.678;26.324;2023-05-10T17:33:57;6.13;;;4.15;;
21235;SDS011;10775;42.678;26.324;2023-05-10T17:36:23;3.60;;;2.80;;
21235;SDS011;10775;42.678;26.324;2023-05-10T17:38:48;4.20;;;3.13;;
21235;SDS011;10775;42.678;26.324;2023-05-10T17:41:14;5.40;;;3.67;;
21235;SDS011;10775;42.678;26.324;2023-05-10T17:43:41;6.47;;;3.95;;
21235;SDS011;10775;42.678;26.324;2023-05-10T17:46:06;4.88;;;2.97;;
21235;SDS011;10775;42.678;26.324;2023-05-10T17:48:31;4.70;;;2.75;;
21235;SDS011;10775;42.678;26.324;2023-05-10T17:50:57;4.93;;;3.00;;
21235;SDS011;10775;42.678;26.324;2023-05-10T17:53:23;6.32;;;3.10;;
21235;SDS011;10775;42.678;26.324;2023-05-10T17:55:49;4.07;;;2.92;;
21235;SDS011;10775;42.678;26.324;2023-05-10T17:58:16;3.33;;;2.60;;
21235;SDS011;10775;42.678;26.324;2023-05-10T18:00:41;3.65;;;2.85;;
21235;SDS011;10775;42.678;26.324;2023-05-10T18:03:07;4.90;;;3.13;;
21235;SDS011;10775;42.678;26.324;2023-05-10T18:05:35;5.47;;;2.97;;